Time;durP1;ratioP1;P1;durP2;ratioP2;P2;SDS_P1;SDS_P2;PMS_P1;PMS_P2;Temp;Humidity;BMP_temperature;BMP_pressure;BME280_temperature;BME280_humidity;BME280_pressure;Samples;Min_cycle;Max_cycle;Signal;HPM_P1;HPM_P2
2022/05/12 00:01:55;;;;;;;6.10;1.60;;;11.40;99.90;;;;;;5014591;28;20064;-70
2022/05/12 00:04:21;;;;;;;5.10;1.55;;;11.40;99.90;;;;;;4998069;28;20109;-70
2022/05/12 00:06:47;;;;;;;3.60;1.40;;;11.30;99.90;;;;;;5013584;28;20437;-70
2022/05/12 00:09:12;;;;;;;4.50;1.13;;;11.20;99.90;;;;;;5014426;28;20050;-70
2022/05/12 00:11:38;;;;;;;6.07;1.73;;;11.10;99.90;;;;;;5014219;28;20397;-70
2022/05/12 00:14:04;;;;;;;4.53;1.30;;;11.20;99.90;;;;;;5013467;28;20060;-70
2022/05/12 00:16:29;;;;;;;4.10;1.40;;;11.10;99.90;;;;;;5015071;28;20045;-70
2022/05/12 00:18:55;;;;;;;4.72;1.45;;;11.00;99.90;;;;;;5013342;28;20136;-70
2022/05/12 00:21:21;;;;;;;4.38;1.50;;;11.00;99.90;;;;;;5014215;28;20080;-70
2022/05/12 00:23:56;;;;;;;4.63;1.20;;;11.00;99.90;;;;;;5013142;28;20411;-70
2022/05/12 00:26:33;;;;;;;4.32;1.05;;;10.90;99.90;;;;;;5013543;28;20080;-71
2022/05/12 00:29:02;;;;;;;5.78;1.50;;;10.80;99.90;;;;;;5014794;28;20042;-71
2022/05/12 00:31:29;;;;;;;3.95;1.33;;;10.80;99.90;;;;;;5014129;28;20046;-71
2022/05/12 00:33:55;;;;;;;2.85;1.10;;;10.70;99.90;;;;;;5014061;28;20124;-70
2022/05/12 00:36:21;;;;;;;3.70;1.75;;;10.60;99.90;;;;;;5012770;28;20513;-71
2022/05/12 00:38:47;;;;;;;4.40;1.17;;;10.70;99.90;;;;;;5012955;28;20076;-71
2022/05/12 00:41:13;;;;;;;3.33;1.02;;;10.60;99.90;;;;;;5029260;28;20049;-71
2022/05/12 00:43:44;;;;;;;3.67;1.20;;;10.60;99.90;;;;;;5014405;28;20156;-70
2022/05/12 00:46:19;;;;;;;4.78;1.08;;;10.60;99.90;;;;;;5013715;28;20112;-70
2022/05/12 00:48:45;;;;;;;4.10;1.20;;;10.50;99.90;;;;;;5013777;28;20065;-71
2022/05/12 00:51:15;;;;;;;5.75;1.35;;;10.50;99.90;;;;;;5013833;28;20056;-70
2022/05/12 00:53:41;;;;;;;4.63;1.08;;;10.40;99.90;;;;;;5012673;28;20107;-70
2022/05/12 00:56:12;;;;;;;2.97;0.90;;;10.40;99.90;;;;;;5012786;28;20085;-71
2022/05/12 00:58:38;;;;;;;2.10;1.00;;;10.30;99.90;;;;;;5013113;28;20052;-71
2022/05/12 01:01:06;;;;;;;5.32;1.05;;;10.30;99.90;;;;;;5013999;28;20042;-70
2022/05/12 01:03:32;;;;;;;3.83;1.27;;;10.30;99.90;;;;;;5013954;28;20494;-70
2022/05/12 01:06:00;;;;;;;2.58;1.30;;;10.20;99.90;;;;;;5013726;28;20100;-70
2022/05/12 01:08:26;;;;;;;3.63;1.10;;;10.20;99.90;;;;;;5013671;28;20085;-70
2022/05/12 01:11:00;;;;;;;3.90;1.42;;;10.20;99.90;;;;;;5014406;28;20139;-71
2022/05/12 01:13:27;;;;;;;2.33;0.85;;;10.10;99.90;;;;;;5014255;28;20060;-70
2022/05/12 01:15:56;;;;;;;3.85;1.10;;;10.10;99.90;;;;;;5014141;28;20065;-70
2022/05/12 01:18:23;;;;;;;3.15;1.00;;;10.10;99.90;;;;;;5012335;28;20041;-70
2022/05/12 01:20:50;;;;;;;2.33;0.98;;;10.00;99.90;;;;;;5013612;28;20085;-70
2022/05/12 01:23:22;;;;;;;3.17;1.00;;;10.00;99.90;;;;;;5013280;28;20565;-70
2022/05/12 01:25:49;;;;;;;1.95;1.02;;;10.00;99.90;;;;;;5013582;28;20046;-70
2022/05/12 01:28:15;;;;;;;3.20;1.00;;;9.90;99.90;;;;;;5013606;28;20049;-70
2022/05/12 01:30:41;;;;;;;3.83;1.00;;;9.90;99.90;;;;;;5013476;28;20057;-71
2022/05/12 01:33:06;;;;;;;4.00;1.10;;;9.80;99.90;;;;;;5014257;28;20367;-70
2022/05/12 01:35:32;;;;;;;4.15;1.38;;;9.80;99.90;;;;;;5013446;28;20048;-70
2022/05/12 01:37:58;;;;;;;4.88;1.10;;;9.80;99.90;;;;;;5014158;28;20046;-70
2022/05/12 01:40:25;;;;;;;2.95;1.10;;;9.70;99.90;;;;;;5013066;28;20045;-70
2022/05/12 01:42:52;;;;;;;3.70;1.00;;;9.70;99.90;;;;;;5013274;28;20479;-70
2022/05/12 01:45:18;;;;;;;3.60;1.40;;;9.60;99.90;;;;;;5013197;28;20081;-70
2022/05/12 01:47:45;;;;;;;3.75;1.27;;;9.60;99.90;;;;;;5013361;28;20052;-70
2022/05/12 01:50:13;;;;;;;3.03;1.30;;;9.60;99.90;;;;;;5013362;28;20116;-70
2022/05/12 01:52:43;;;;;;;3.15;1.55;;;9.60;99.90;;;;;;5014083;28;20410;-70
2022/05/12 01:55:14;;;;;;;2.15;1.10;;;9.50;99.90;;;;;;5013278;28;20486;-70
2022/05/12 01:57:43;;;;;;;2.85;1.13;;;9.50;99.90;;;;;;5013258;28;20042;-70
2022/05/12 02:00:12;;;;;;;3.67;1.15;;;9.40;99.90;;;;;;5012314;28;20085;-70
2022/05/12 02:02:39;;;;;;;4.15;1.10;;;9.40;99.90;;;;;;5013199;28;20057;-70
2022/05/12 02:05:09;;;;;;;2.72;1.20;;;9.40;99.90;;;;;;5015929;28;20491;-70
2022/05/12 02:07:36;;;;;;;2.60;1.15;;;9.30;99.90;;;;;;5017419;28;20050;-70
2022/05/12 02:10:04;;;;;;;3.05;1.10;;;9.30;99.90;;;;;;5015460;28;20050;-70
2022/05/12 02:12:30;;;;;;;4.80;1.08;;;9.30;99.90;;;;;;5017460;28;20053;-70
2022/05/12 02:14:56;;;;;;;5.05;1.27;;;9.60;99.90;;;;;;5016612;28;20042;-70
2022/05/12 02:17:21;;;;;;;2.67;1.10;;;9.30;99.90;;;;;;5016451;28;20528;-70
2022/05/12 02:19:47;;;;;;;5.53;1.90;;;9.20;99.90;;;;;;5016570;28;20046;-70
2022/05/12 02:22:13;;;;;;;3.05;1.13;;;9.50;99.90;;;;;;5016802;28;20045;-70
2022/05/12 02:24:39;;;;;;;2.42;0.93;;;9.20;99.90;;;;;;5016458;28;20053;-71
2022/05/12 02:27:04;;;;;;;3.10;1.25;;;9.20;99.90;;;;;;5016350;28;20101;-70
2022/05/12 02:29:30;;;;;;;3.35;1.60;;;9.20;99.90;;;;;;5017085;28;20096;-71
2022/05/12 02:31:56;;;;;;;2.45;1.10;;;9.10;99.90;;;;;;5016344;28;20435;-70
2022/05/12 02:34:21;;;;;;;4.30;1.67;;;9.10;99.90;;;;;;5016553;28;20104;-71
2022/05/12 02:36:59;;;;;;;2.78;1.20;;;9.00;99.90;;;;;;5016604;28;20033;-71
2022/05/12 02:39:35;;;;;;;5.25;1.40;;;8.90;99.90;;;;;;5016322;28;20058;-70
2022/05/12 02:42:04;;;;;;;4.43;1.55;;;8.90;99.90;;;;;;5016101;28;20053;-71
2022/05/12 02:44:30;;;;;;;4.18;1.40;;;8.90;99.90;;;;;;5016494;28;20459;-70
2022/05/12 02:46:56;;;;;;;3.28;1.20;;;9.00;99.90;;;;;;5016067;28;20093;-70
2022/05/12 02:49:21;;;;;;;5.15;1.30;;;9.00;99.90;;;;;;5015891;28;20099;-70
2022/05/12 02:51:48;;;;;;;3.20;1.50;;;9.00;99.90;;;;;;5016476;28;20042;-70
2022/05/12 02:54:17;;;;;;;3.53;1.30;;;9.00;99.90;;;;;;5015176;28;20057;-70
2022/05/12 02:56:43;;;;;;;4.53;1.67;;;9.30;99.90;;;;;;5015793;28;20056;-70
2022/05/12 02:59:09;;;;;;;3.58;1.60;;;9.00;99.90;;;;;;5016349;28;20046;-70
2022/05/12 03:01:35;;;;;;;4.50;1.50;;;9.00;99.90;;;;;;5015757;28;20056;-71
2022/05/12 03:04:01;;;;;;;3.35;1.70;;;9.00;99.90;;;;;;5015678;28;20049;-70
2022/05/12 03:06:27;;;;;;;4.28;1.63;;;9.00;99.90;;;;;;5016724;28;20048;-69
2022/05/12 03:08:53;;;;;;;4.38;1.48;;;8.90;99.90;;;;;;5015217;28;20469;-70
2022/05/12 03:11:19;;;;;;;3.35;1.33;;;8.90;99.90;;;;;;5015612;28;20077;-70
2022/05/12 03:13:48;;;;;;;4.22;1.50;;;8.90;99.90;;;;;;5014599;28;20050;-70
2022/05/12 03:16:18;;;;;;;4.60;1.70;;;8.80;99.90;;;;;;5015298;28;20379;-69
2022/05/12 03:18:46;;;;;;;4.07;1.65;;;8.90;99.90;;;;;;5015426;28;20096;-70
2022/05/12 03:21:16;;;;;;;3.88;1.58;;;8.90;99.90;;;;;;5015206;28;20418;-70
2022/05/12 03:23:42;;;;;;;3.42;1.95;;;8.90;99.90;;;;;;5015041;28;20494;-70
2022/05/12 03:26:09;;;;;;;4.07;1.58;;;9.20;99.90;;;;;;5015310;28;20069;-70
2022/05/12 03:28:35;;;;;;;3.50;1.55;;;8.90;99.90;;;;;;5014020;28;20050;-70
2022/05/12 03:31:01;;;;;;;3.92;1.80;;;8.80;99.90;;;;;;5015169;28;20073;-70
2022/05/12 03:33:27;;;;;;;2.78;1.65;;;8.70;99.90;;;;;;5015242;28;20521;-70
2022/05/12 03:35:52;;;;;;;4.40;2.20;;;8.70;99.90;;;;;;5015169;28;20046;-70
2022/05/12 03:38:19;;;;;;;2.47;1.50;;;8.60;99.90;;;;;;5015258;28;20124;-70
2022/05/12 03:40:46;;;;;;;3.80;1.90;;;8.50;99.90;;;;;;5015483;28;20053;-69
2022/05/12 03:44:46;;;;;;;5.25;2.00;;;8.70;99.90;;;;;;5015083;28;20053;-69
2022/05/12 03:45:58;;;;;;;3.13;1.77;;;8.50;99.90;;;;;;5015296;28;20505;-70
2022/05/12 03:48:24;;;;;;;3.55;1.70;;;8.50;99.90;;;;;;5014875;28;20042;-69
2022/05/12 03:50:50;;;;;;;3.63;2.00;;;8.50;99.90;;;;;;5015342;28;20041;-70
2022/05/12 03:53:15;;;;;;;3.28;1.83;;;8.50;99.90;;;;;;5014777;28;20050;-70
2022/05/12 03:55:41;;;;;;;4.07;2.05;;;8.60;99.90;;;;;;5015036;28;20431;-70
2022/05/12 03:58:07;;;;;;;5.30;2.08;;;8.60;99.90;;;;;;5014644;28;20046;-70
2022/05/12 04:00:34;;;;;;;3.83;1.75;;;8.60;99.90;;;;;;5014619;28;20041;-70
2022/05/12 04:03:00;;;;;;;7.25;2.00;;;8.60;99.90;;;;;;5015058;28;20053;-70
2022/05/12 04:05:27;;;;;;;4.75;2.20;;;8.50;99.90;;;;;;5014551;28;20041;-69
2022/05/12 04:07:53;;;;;;;4.28;2.05;;;8.50;99.90;;;;;;5014554;28;20116;-69
2022/05/12 04:10:21;;;;;;;6.43;2.33;;;8.60;99.90;;;;;;5014386;28;20077;-69
2022/05/12 04:12:47;;;;;;;3.55;2.50;;;8.60;99.90;;;;;;5014370;28;20489;-70
2022/05/12 04:15:15;;;;;;;5.03;1.88;;;8.60;99.90;;;;;;5014419;28;20088;-70
2022/05/12 04:17:42;;;;;;;5.35;2.35;;;8.50;99.90;;;;;;5014269;28;20050;-70
2022/05/12 04:20:12;;;;;;;4.90;2.15;;;8.50;99.90;;;;;;5013118;28;20038;-69
2022/05/12 04:22:43;;;;;;;4.40;2.10;;;8.50;99.90;;;;;;5015020;28;20085;-70
2022/05/12 04:25:09;;;;;;;5.55;2.92;;;8.60;99.90;;;;;;5014265;28;20058;-69
2022/05/12 04:27:39;;;;;;;6.30;2.17;;;8.60;99.90;;;;;;5013714;28;20085;-69
2022/05/12 04:30:06;;;;;;;4.50;2.10;;;8.60;99.90;;;;;;5014098;28;20045;-70
2022/05/12 04:32:32;;;;;;;8.05;2.45;;;8.70;99.90;;;;;;5014148;28;20046;-70
2022/05/12 04:35:11;;;;;;;5.95;2.22;;;8.80;99.90;;;;;;5014009;28;20513;-69
2022/05/12 04:37:37;;;;;;;7.25;2.47;;;8.80;99.90;;;;;;5014625;28;20151;-69
2022/05/12 04:40:10;;;;;;;5.47;2.03;;;8.90;99.90;;;;;;5013937;28;20371;-69
2022/05/12 04:42:36;;;;;;;4.72;2.20;;;8.90;99.90;;;;;;5014299;28;20068;-69
2022/05/12 04:45:03;;;;;;;5.43;2.40;;;9.00;99.90;;;;;;5014511;28;20438;-69
2022/05/12 04:47:29;;;;;;;8.32;2.60;;;9.00;99.90;;;;;;5014380;28;20061;-69
2022/05/12 04:49:56;;;;;;;6.30;2.25;;;9.10;99.90;;;;;;5014149;28;20046;-70
2022/05/12 04:52:23;;;;;;;7.22;2.60;;;9.10;99.90;;;;;;5013745;28;20046;-70
2022/05/12 04:54:49;;;;;;;7.18;3.10;;;9.20;99.90;;;;;;5013821;28;20132;-70
2022/05/12 04:57:15;;;;;;;6.55;2.72;;;9.20;99.90;;;;;;5013767;28;20133;-70
2022/05/12 04:59:40;;;;;;;4.57;2.58;;;9.30;99.90;;;;;;5013775;28;20053;-70
2022/05/12 05:02:06;;;;;;;6.38;2.63;;;9.40;99.90;;;;;;5013725;28;20054;-69
2022/05/12 05:04:32;;;;;;;5.15;2.88;;;9.40;99.90;;;;;;5013751;28;20107;-70
2022/05/12 05:06:57;;;;;;;6.95;3.20;;;9.50;99.90;;;;;;5013927;28;20042;-70
2022/05/12 05:09:23;;;;;;;7.40;3.05;;;9.50;99.90;;;;;;5014071;28;20038;-70
2022/05/12 05:11:50;;;;;;;6.88;3.05;;;9.60;99.90;;;;;;5013633;28;20120;-69
2022/05/12 05:14:16;;;;;;;8.00;3.63;;;9.70;99.90;;;;;;5013671;28;20038;-69
2022/05/12 05:16:42;;;;;;;7.60;3.30;;;9.80;99.90;;;;;;5013552;28;20045;-69
2022/05/12 05:19:08;;;;;;;5.88;3.10;;;9.90;99.90;;;;;;5014350;28;20054;-70
2022/05/12 05:21:34;;;;;;;9.00;4.18;;;10.00;99.90;;;;;;5013807;28;20049;-69
2022/05/12 05:24:00;;;;;;;5.88;3.42;;;10.10;99.90;;;;;;5013972;28;20210;-69
2022/05/12 05:26:25;;;;;;;6.50;3.55;;;10.10;99.90;;;;;;5013526;28;20041;-70
2022/05/12 05:28:51;;;;;;;8.15;3.90;;;10.30;99.90;;;;;;5013468;28;20056;-69
2022/05/12 05:31:17;;;;;;;6.18;3.65;;;10.30;99.90;;;;;;5013507;28;20112;-69
2022/05/12 05:33:42;;;;;;;10.55;4.43;;;10.40;99.90;;;;;;5013444;28;20482;-70
2022/05/12 05:36:08;;;;;;;9.77;4.55;;;10.50;99.90;;;;;;5013476;28;20069;-70
2022/05/12 05:38:34;;;;;;;9.32;4.70;;;10.60;99.90;;;;;;5013466;28;20093;-70
2022/05/12 05:41:00;;;;;;;9.77;4.32;;;10.60;99.90;;;;;;5017141;28;20050;-70
2022/05/12 05:43:26;;;;;;;10.80;5.80;;;10.70;99.90;;;;;;5017355;28;20077;-69
2022/05/12 05:45:53;;;;;;;13.63;5.43;;;10.70;99.90;;;;;;5017467;28;20073;-70
2022/05/12 05:48:19;;;;;;;11.65;5.25;;;10.70;99.90;;;;;;5017111;28;20088;-69
2022/05/12 05:53:35;;;;;;;11.48;5.57;;;10.80;99.90;;;;;;5017479;28;20487;-70
2022/05/12 05:56:04;;;;;;;9.48;5.50;;;10.90;99.90;;;;;;5017815;28;20462;-69
2022/05/12 05:58:30;;;;;;;10.75;5.40;;;10.90;99.90;;;;;;5015944;28;20096;-70
2022/05/12 06:00:56;;;;;;;7.47;4.75;;;10.90;99.90;;;;;;5015926;28;20521;-70
2022/05/12 06:03:23;;;;;;;10.38;6.05;;;11.00;99.90;;;;;;5017280;28;20085;-70
2022/05/12 06:05:50;;;;;;;9.65;5.13;;;11.00;99.90;;;;;;5016985;28;20042;-70
2022/05/12 06:08:18;;;;;;;10.07;5.30;;;11.10;99.90;;;;;;5016491;28;20525;-70
2022/05/12 06:10:44;;;;;;;12.23;5.57;;;11.20;99.90;;;;;;5017343;28;20049;-70
2022/05/12 06:13:11;;;;;;;12.40;5.55;;;11.20;99.90;;;;;;5016631;28;20053;-70
2022/05/12 06:15:38;;;;;;;12.85;5.80;;;11.30;99.90;;;;;;5016598;28;20049;-70
2022/05/12 06:18:13;;;;;;;9.65;5.72;;;11.40;99.90;;;;;;5016437;28;20164;-69
2022/05/12 06:20:41;;;;;;;9.55;5.97;;;11.50;99.90;;;;;;5017002;28;20052;-70
2022/05/12 06:23:08;;;;;;;10.30;5.13;;;11.60;99.90;;;;;;5017203;28;20092;-69
2022/05/12 06:25:35;;;;;;;11.10;5.05;;;11.70;99.90;;;;;;5016961;28;20050;-69
2022/05/12 06:28:00;;;;;;;11.82;5.22;;;11.80;99.90;;;;;;5016342;28;20092;-69
2022/05/12 06:30:29;;;;;;;12.80;5.97;;;11.90;99.90;;;;;;5016296;28;20050;-69
2022/05/12 06:32:56;;;;;;;11.40;5.72;;;12.00;99.90;;;;;;5015237;28;20433;-70
2022/05/12 06:35:23;;;;;;;10.27;5.05;;;12.10;99.90;;;;;;5016169;28;20529;-69
2022/05/12 06:37:50;;;;;;;11.82;5.50;;;12.10;99.90;;;;;;5016052;28;20052;-69
2022/05/12 06:40:16;;;;;;;10.70;5.13;;;12.20;99.90;;;;;;5016057;28;20404;-69
2022/05/12 06:42:43;;;;;;;10.25;4.38;;;12.30;99.90;;;;;;5015928;28;20041;-69
2022/05/12 06:45:12;;;;;;;9.15;5.05;;;12.40;99.90;;;;;;5016344;28;20459;-69
2022/05/12 06:47:38;;;;;;;8.32;4.25;;;12.50;99.90;;;;;;5015956;28;20042;-69
2022/05/12 06:50:04;;;;;;;8.85;4.78;;;12.60;99.90;;;;;;5015540;28;20382;-69
2022/05/12 06:52:31;;;;;;;11.07;4.95;;;12.60;99.90;;;;;;5016385;28;20446;-69
2022/05/12 06:54:57;;;;;;;9.60;4.70;;;12.60;99.90;;;;;;5014715;28;20441;-70
2022/05/12 06:57:27;;;;;;;7.07;4.60;;;12.70;99.90;;;;;;5015747;28;20045;-69
2022/05/12 06:59:53;;;;;;;10.35;4.75;;;12.80;99.90;;;;;;5015579;28;20577;-69
2022/05/12 07:02:19;;;;;;;6.95;4.20;;;12.90;99.90;;;;;;5015760;28;20092;-69
2022/05/12 07:04:46;;;;;;;7.55;4.20;;;12.90;99.90;;;;;;5014372;28;20046;-70
2022/05/12 07:07:13;;;;;;;9.18;3.78;;;13.00;99.90;;;;;;5015626;28;20046;-69
2022/05/12 07:09:39;;;;;;;5.95;3.80;;;13.00;99.90;;;;;;5014790;28;20152;-70
2022/05/12 07:12:05;;;;;;;7.68;3.58;;;13.10;99.90;;;;;;5016095;28;20386;-70
2022/05/12 07:14:32;;;;;;;6.47;3.17;;;13.20;99.90;;;;;;5015417;28;20081;-72
2022/05/12 07:16:58;;;;;;;7.45;3.72;;;13.30;99.90;;;;;;5014451;28;20480;-70
2022/05/12 07:19:25;;;;;;;6.88;3.20;;;13.40;99.90;;;;;;5015753;28;20124;-70
2022/05/12 07:27:19;;;;;;;6.32;2.65;;;13.70;99.90;;;;;;5015722;28;20045;-70
2022/05/12 07:29:45;;;;;;;5.63;2.35;;;13.80;99.90;;;;;;5015192;28;20057;-70
2022/05/12 07:32:11;;;;;;;5.65;2.67;;;13.80;99.90;;;;;;5015074;28;20129;-70
2022/05/12 07:34:37;;;;;;;7.63;3.08;;;14.00;99.90;;;;;;5014793;28;20491;-71
2022/05/12 07:37:04;;;;;;;7.28;2.70;;;14.10;99.90;;;;;;5014556;28;20049;-70
2022/05/12 07:39:30;;;;;;;4.70;2.38;;;14.10;99.90;;;;;;5014888;28;20045;-69
2022/05/12 07:41:58;;;;;;;4.90;2.42;;;14.10;99.90;;;;;;5014994;28;20049;-69
2022/05/12 07:44:32;;;;;;;5.38;2.25;;;14.20;99.90;;;;;;5015975;28;20467;-70
2022/05/12 07:47:00;;;;;;;7.00;2.38;;;14.30;99.90;;;;;;5014842;28;20061;-71
2022/05/12 07:49:28;;;;;;;4.97;2.78;;;14.40;99.90;;;;;;5014867;28;20049;-71
2022/05/12 07:51:54;;;;;;;4.00;1.92;;;14.40;99.90;;;;;;5014720;28;20053;-71
2022/05/12 07:54:20;;;;;;;8.18;1.98;;;14.50;99.90;;;;;;5014729;28;20054;-71
2022/05/12 07:56:46;;;;;;;4.95;1.83;;;14.60;99.90;;;;;;5014844;28;20073;-72
2022/05/12 07:59:12;;;;;;;5.25;2.08;;;14.70;99.90;;;;;;5015112;28;20048;-71
2022/05/12 08:01:38;;;;;;;4.05;2.05;;;14.70;99.90;;;;;;5013061;28;20058;-71
2022/05/12 08:04:04;;;;;;;5.03;1.98;;;14.80;99.90;;;;;;5014525;28;20041;-70
2022/05/12 08:06:31;;;;;;;4.47;2.03;;;14.80;99.90;;;;;;5015222;28;20045;-69
2022/05/12 08:08:57;;;;;;;3.75;1.55;;;15.00;99.90;;;;;;5014408;28;20054;-69
2022/05/12 08:11:24;;;;;;;4.25;1.90;;;15.10;99.90;;;;;;5014359;28;20038;-70
2022/05/12 08:13:50;;;;;;;4.43;1.80;;;15.10;99.90;;;;;;5014421;28;20057;-70
2022/05/12 08:16:18;;;;;;;4.32;2.20;;;15.30;99.90;;;;;;5014129;28;20352;-69
2022/05/12 08:18:45;;;;;;;4.68;1.60;;;15.40;99.90;;;;;;5014334;28;20112;-71
2022/05/12 08:21:12;;;;;;;3.85;1.70;;;15.40;99.90;;;;;;5013346;28;20140;-70
2022/05/12 08:23:38;;;;;;;4.38;2.08;;;15.20;99.90;;;;;;5014965;28;20056;-70
2022/05/12 08:26:03;;;;;;;3.70;1.83;;;15.40;99.90;;;;;;4997513;28;20050;-70
2022/05/12 08:28:29;;;;;;;3.50;1.70;;;15.40;99.90;;;;;;5014127;28;20387;-70
2022/05/12 08:30:55;;;;;;;4.40;2.20;;;15.30;99.90;;;;;;5014811;28;20081;-70
2022/05/12 08:33:22;;;;;;;5.55;2.00;;;15.40;99.90;;;;;;5012899;28;20046;-72
2022/05/12 08:35:49;;;;;;;4.20;2.03;;;15.40;99.90;;;;;;5013982;28;20046;-71
2022/05/12 08:38:17;;;;;;;5.20;2.20;;;15.50;99.90;;;;;;5013558;28;20484;-70
2022/05/12 08:41:03;;;;;;;2.53;1.40;;;15.50;99.90;;;;;;5013856;28;20061;-70
2022/05/12 08:43:33;;;;;;;4.10;1.80;;;15.50;99.90;;;;;;5013562;28;20061;-70
2022/05/12 08:46:11;;;;;;;2.72;1.50;;;15.50;99.90;;;;;;5012910;28;20053;-70
2022/05/12 08:48:40;;;;;;;4.60;1.77;;;15.60;99.90;;;;;;5013871;28;20096;-69
2022/05/12 08:51:07;;;;;;;4.35;1.70;;;15.50;99.90;;;;;;5014534;28;20049;-70
2022/05/12 08:53:48;;;;;;;5.13;2.03;;;15.30;99.90;;;;;;5013696;28;20129;-71
2022/05/12 08:56:17;;;;;;;3.97;1.77;;;15.40;99.90;;;;;;5014470;28;20347;-71
2022/05/12 08:58:43;;;;;;;4.22;1.90;;;15.60;99.90;;;;;;5013256;28;20517;-70
2022/05/12 09:01:21;;;;;;;4.20;1.85;;;15.70;99.90;;;;;;5012729;28;20042;-69
2022/05/12 09:04:26;;;;;;;5.30;1.75;;;15.60;99.90;;;;;;5013380;28;20498;-70
2022/05/12 09:07:05;;;;;;;4.65;1.60;;;15.70;99.90;;;;;;5013401;28;20164;-68
2022/05/12 09:09:51;;;;;;;3.28;1.63;;;15.90;99.90;;;;;;5013567;28;20053;-69
2022/05/12 09:12:23;;;;;;;;;;;16.00;99.90;;;;;;5014306;28;20041;-69
2022/05/12 09:14:58;;;;;;;4.18;1.80;;;16.20;99.90;;;;;;5017660;28;19936;-68
2022/05/12 09:17:37;;;;;;;7.32;2.03;;;16.20;99.90;;;;;;5018120;28;20124;-68
2022/05/12 09:20:03;;;;;;;3.63;1.65;;;15.90;99.90;;;;;;5017197;28;20514;-68
2022/05/12 09:22:30;;;;;;;5.38;1.70;;;15.80;99.90;;;;;;5017190;28;20109;-68
2022/05/12 09:24:56;;;;;;;3.83;1.75;;;15.70;99.90;;;;;;5017656;28;20046;-69
2022/05/12 09:27:35;;;;;;;4.32;2.10;;;15.70;99.90;;;;;;5016124;28;20081;-69
2022/05/12 09:30:03;;;;;;;4.13;1.95;;;15.70;99.90;;;;;;5017169;28;20046;-68
2022/05/12 09:32:32;;;;;;;3.13;1.83;;;15.90;99.90;;;;;;5016869;28;20046;-69
2022/05/12 09:35:20;;;;;;;4.43;1.73;;;16.10;99.90;;;;;;5017537;28;20068;-68
2022/05/12 09:37:47;;;;;;;5.15;1.98;;;16.30;99.90;;;;;;5017828;28;20041;-68
2022/05/12 09:40:18;;;;;;;3.92;1.50;;;16.40;99.90;;;;;;5017048;28;20045;-68
2022/05/12 09:42:47;;;;;;;3.72;1.40;;;16.50;99.90;;;;;;5017444;28;20070;-69
2022/05/12 09:45:16;;;;;;;3.42;1.55;;;16.50;99.90;;;;;;5017525;28;20366;-68
2022/05/12 09:47:42;;;;;;;3.92;1.40;;;16.40;99.90;;;;;;5016993;28;20172;-69
2022/05/12 09:50:20;;;;;;;5.78;1.60;;;16.30;99.90;;;;;;5016950;28;20050;-68
2022/05/12 09:53:00;;;;;;;3.83;1.42;;;16.10;99.90;;;;;;5016930;28;20053;-68
2022/05/12 09:55:28;;;;;;;3.25;1.10;;;16.00;99.90;;;;;;5016817;28;20057;-69
2022/05/12 09:58:04;;;;;;;3.40;1.30;;;16.20;99.90;;;;;;5016907;28;20050;-68
2022/05/12 10:00:30;;;;;;;2.17;1.08;;;16.50;99.90;;;;;;5016774;28;20053;-70
2022/05/12 10:08:59;;;;;;;3.53;1.33;;;16.80;99.90;;;;;;5016844;28;20053;-69
2022/05/12 10:11:26;;;;;;;5.65;1.30;;;16.80;99.90;;;;;;5016674;28;20053;-68
2022/05/12 10:13:56;;;;;;;3.92;1.30;;;16.90;99.90;;;;;;5015516;28;20482;-69
2022/05/12 10:16:29;;;;;;;2.92;1.30;;;16.80;99.90;;;;;;5016641;28;20053;-69
2022/05/12 10:18:59;;;;;;;2.53;1.40;;;16.80;99.90;;;;;;5016817;28;20050;-68
2022/05/12 10:21:33;;;;;;;3.25;1.70;;;16.80;99.90;;;;;;5017500;28;20398;-69
2022/05/12 10:24:23;;;;;;;3.92;1.50;;;16.80;99.90;;;;;;5016807;28;20493;-69
2022/05/12 10:27:07;;;;;;;4.00;1.30;;;16.90;99.90;;;;;;5015452;28;20088;-68
2022/05/12 10:29:54;;;;;;;3.17;1.50;;;17.00;99.90;;;;;;5016938;28;20053;-70
2022/05/12 10:32:28;;;;;;;;;;;17.20;99.90;;;;;;5016763;28;20046;-71
2022/05/12 10:35:26;;;;;;;3.33;1.60;;;17.30;99.90;;;;;;5016301;28;19928;-70
2022/05/12 10:37:55;;;;;;;4.28;1.30;;;17.20;99.90;;;;;;5014598;28;20049;-69
2022/05/12 10:40:37;;;;;;;2.95;1.27;;;17.20;99.90;;;;;;5016375;28;20092;-69
2022/05/12 10:43:05;;;;;;;3.28;1.48;;;17.30;99.90;;;;;;5016034;28;20513;-69
2022/05/12 10:46:03;;;;;;;3.38;1.20;;;17.40;99.90;;;;;;5016082;28;20080;-70
2022/05/12 10:49:09;;;;;;;4.38;1.42;;;17.40;99.90;;;;;;5016812;28;20037;-69
2022/05/12 10:51:47;;;;;;;2.85;1.23;;;17.40;99.90;;;;;;5016018;28;20046;-69
2022/05/12 10:54:30;;;;;;;3.28;1.33;;;17.40;99.90;;;;;;5016329;28;20410;-69
2022/05/12 10:57:23;;;;;;;3.72;0.90;;;17.30;99.90;;;;;;5015037;28;20041;-71
2022/05/12 11:00:08;;;;;;;2.70;1.40;;;17.40;99.90;;;;;;5016394;28;20045;-69
2022/05/12 11:02:43;;;;;;;3.95;1.27;;;17.40;99.90;;;;;;5015400;28;20512;-70
2022/05/12 11:05:32;;;;;;;2.22;1.02;;;17.50;99.90;;;;;;5015713;28;20121;-70
2022/05/12 11:08:04;;;;;;;2.22;1.05;;;17.70;99.90;;;;;;5015634;28;20045;-71
2022/05/12 11:10:51;;;;;;;2.33;1.05;;;17.70;99.90;;;;;;5016077;28;20050;-68
2022/05/12 11:13:33;;;;;;;2.50;0.80;;;17.60;99.90;;;;;;5015820;28;20398;-68
2022/05/12 11:16:04;;;;;;;1.48;0.70;;;17.40;99.90;;;;;;5015545;28;20046;-68
2022/05/12 11:18:42;;;;;;;3.95;1.10;;;17.50;99.90;;;;;;5015359;28;20050;-69
2022/05/12 11:21:29;;;;;;;2.60;1.27;;;17.60;99.90;;;;;;5015300;28;20524;-69
2022/05/12 11:24:21;;;;;;;2.58;1.20;;;17.40;99.90;;;;;;5016416;28;20120;-68
2022/05/12 11:27:04;;;;;;;2.42;1.10;;;17.50;99.90;;;;;;5015818;28;20065;-68
2022/05/12 11:29:48;;;;;;;6.60;1.88;;;17.60;99.90;;;;;;5015132;28;20046;-69
2022/05/12 11:32:35;;;;;;;2.60;0.98;;;17.70;99.90;;;;;;5015191;28;20046;-68
2022/05/12 11:35:08;;;;;;;4.15;1.20;;;17.80;99.90;;;;;;5015117;28;20092;-68
2022/05/12 11:37:38;;;;;;;1.60;0.70;;;17.90;99.90;;;;;;5014965;28;20042;-69
2022/05/12 11:40:35;;;;;;;4.22;1.30;;;18.00;99.90;;;;;;5015126;28;20160;-70
2022/05/12 11:45:50;;;;;;;2.45;0.75;;;18.10;99.90;;;;;;5014817;28;20056;-69
2022/05/12 11:48:47;;;;;;;3.42;0.65;;;18.20;99.90;;;;;;5014635;28;20483;-69
2022/05/12 11:51:40;;;;;;;2.22;1.00;;;18.30;99.90;;;;;;5015450;28;20462;-68
2022/05/12 11:54:31;;;;;;;2.88;0.98;;;18.40;99.90;;;;;;5014420;28;20064;-68
2022/05/12 11:57:00;;;;;;;2.38;1.00;;;18.20;99.90;;;;;;5008727;28;20057;-68
2022/05/12 11:59:31;;;;;;;2.53;0.85;;;18.10;99.90;;;;;;5013690;28;20475;-68
2022/05/12 12:01:56;;;;;;;3.42;1.10;;;18.10;99.90;;;;;;5015097;28;20092;-68
2022/05/12 12:04:40;;;;;;;1.65;0.77;;;18.10;99.90;;;;;;5014523;28;20046;-69
2022/05/12 12:07:07;;;;;;;2.17;0.75;;;18.20;99.90;;;;;;5014551;28;20045;-69
2022/05/12 12:09:36;;;;;;;3.00;0.98;;;18.20;99.90;;;;;;5014715;28;20061;-69
2022/05/12 12:12:04;;;;;;;3.10;1.02;;;18.20;99.90;;;;;;5014367;28;20089;-67
2022/05/12 12:14:42;;;;;;;1.52;0.73;;;18.30;99.90;;;;;;5013440;28;20494;-69
2022/05/12 12:17:34;;;;;;;3.92;1.33;;;18.00;99.90;;;;;;5013318;28;20068;-68
2022/05/12 12:20:04;;;;;;;1.83;0.80;;;18.00;99.90;;;;;;5014934;28;20129;-69
2022/05/12 12:22:48;;;;;;;2.38;1.10;;;18.20;99.80;;;;;;5014360;28;20134;-68
2022/05/12 12:25:26;;;;;;;3.33;0.90;;;18.20;99.90;;;;;;5015088;28;20046;-69
2022/05/12 12:27:57;;;;;;;2.08;0.80;;;18.20;98.40;;;;;;5014782;28;20042;-69
2022/05/12 12:30:31;;;;;;;2.33;1.13;;;18.30;99.50;;;;;;5014192;28;20050;-69
2022/05/12 12:33:35;;;;;;;7.07;1.42;;;18.20;99.00;;;;;;5014130;28;20049;-70
2022/05/12 12:36:29;;;;;;;2.85;1.10;;;18.00;99.30;;;;;;5014435;28;20461;-69
2022/05/12 12:38:55;;;;;;;4.40;1.35;;;17.70;99.00;;;;;;5014277;28;20054;-69
2022/05/12 12:41:33;;;;;;;3.22;1.13;;;17.80;99.80;;;;;;5013928;28;20054;-69
2022/05/12 12:44:04;;;;;;;2.97;0.98;;;18.00;98.30;;;;;;5013693;28;20062;-69
2022/05/12 12:47:01;;;;;;;2.42;1.05;;;18.20;99.40;;;;;;5014506;28;20088;-69
2022/05/12 12:49:34;;;;;;;3.22;0.90;;;18.30;98.80;;;;;;5013577;28;20133;-68
2022/05/12 12:52:11;;;;;;;2.58;0.80;;;18.50;99.90;;;;;;5014154;28;20049;-68
2022/05/12 12:57:39;;;;;;;2.05;0.82;;;18.70;98.40;;;;;;5013727;28;20053;-69
2022/05/12 13:00:14;;;;;;;3.03;0.73;;;18.60;95.60;;;;;;5014569;28;20095;-69
2022/05/12 13:02:45;;;;;;;2.45;0.90;;;18.50;96.10;;;;;;5012335;28;20621;-68
2022/05/12 13:05:18;;;;;;;4.20;1.20;;;18.40;96.90;;;;;;5013703;28;20046;-69
2022/05/12 13:08:19;;;;;;;3.22;0.80;;;18.10;96.40;;;;;;5013708;28;20096;-69
2022/05/12 13:10:49;;;;;;;1.58;0.65;;;18.20;95.20;;;;;;5014108;28;20054;-69
2022/05/12 13:13:15;;;;;;;2.42;0.80;;;18.30;96.90;;;;;;5013975;28;20418;-69
2022/05/12 13:15:45;;;;;;;3.58;0.93;;;18.40;95.40;;;;;;5013498;28;20057;-69
2022/05/12 13:18:28;;;;;;;2.65;0.80;;;18.30;95.00;;;;;;4996077;28;20053;-69
2022/05/12 13:20:55;;;;;;;2.13;0.95;;;18.60;95.60;;;;;;5013559;28;20050;-68
2022/05/12 13:23:30;;;;;;;2.10;0.80;;;18.90;94.20;;;;;;5012790;28;20482;-69
2022/05/12 13:25:59;;;;;;;2.88;0.80;;;18.90;92.00;;;;;;5013804;28;20100;-68
2022/05/12 13:28:27;;;;;;;2.13;0.70;;;18.80;91.70;;;;;;5013408;28;20046;-69